Tuesday, August 30, 2016, 10:06 PM EDT

KGED, Georgetown Sussex Co Airport

Location: Georgetown, DE, United States Lat: 38.683
Local Time: 10:06 PM EDT ( 2:06 GMT) Lon: -75.367
Time Zone: US/Eastern Elev: 52 ft

Show me the last for .
Show Decoded

2016-08-30 21:54 METAR KGED 310154Z AUTO 00000KT 9SM CLR 23/22 A3005 RMK AO2 SLP176 T02280217 =
2016-08-30 20:54 METAR KGED 310054Z AUTO 00000KT 10SM CLR 24/22 A3005 RMK AO2 SLP176 T02390222 =
2016-08-30 19:54 METAR KGED 302354Z AUTO 17003KT 10SM CLR 25/22 A3004 RMK AO2 SLP172 T02500222
                 10317 20250 57004 =
2016-08-30 18:54 METAR KGED 302254Z AUTO 17003KT 10SM CLR 27/22 A3004 RMK AO2 SLP173 T02670217 =
2016-08-30 17:54 METAR KGED 302154Z AUTO 14008KT 10SM FEW021 28/23 A3005 RMK AO2 SLP175 T02780228
                 =
2016-08-30 16:54 METAR KGED 302054Z AUTO 12009KT 10SM CLR 29/22 A3005 RMK AO2 SLP176 T02890217
                 56012 =
2016-08-30 15:54 METAR KGED 301954Z AUTO 11009KT 10SM CLR 29/21 A3006 RMK AO2 SLP178 T02940206 =
2016-08-30 14:54 METAR KGED 301854Z AUTO 02008KT 10SM FEW030 FEW035 BKN046 29/20 A3007 RMK AO2
                 SLP182 T02940200 =
2016-08-30 13:54 METAR KGED 301754Z AUTO 10SM SCT039 32/19 A3009 RMK AO2 SLP188 T03170194 10317
                 20239 58014 =
2016-08-30 12:54 METAR KGED 301654Z AUTO 36006KT 10SM SCT055 30/20 A3010 RMK AO2 SLP193 T03000200
                 =
2016-08-30 11:54 METAR KGED 301554Z AUTO 00000KT 10SM FEW036 30/21 A3011 RMK AO2 SLP197 T03000211
                 =
2016-08-30 10:54 METAR KGED 301454Z AUTO 10SM FEW024 29/22 A3013 RMK AO2 SLP201 T02890222 58002 =
2016-08-30 09:54 METAR KGED 301354Z AUTO 02004KT 10SM CLR 28/22 A3014 RMK AO2 SLP204 T02780217 =
2016-08-30 08:54 METAR KGED 301254Z AUTO 04006KT 10SM CLR 26/21 A3014 RMK AO2 SLP205 T02560211 =
2016-08-30 07:54 METAR KGED 301154Z AUTO 04005KT 10SM CLR 24/21 A3013 RMK AO2 SLP203 T02390206
                 10239 20222 53014 =
2016-08-30 06:54 METAR KGED 301054Z AUTO 36003KT 10SM CLR 22/19 A3012 RMK AO2 SLP198 T02220194 =
2016-08-30 05:54 METAR KGED 300954Z AUTO 02004KT 10SM CLR 22/19 A3011 RMK AO2 SLP194 T02220189 =
2016-08-30 04:54 METAR KGED 300854Z AUTO 02004KT 10SM CLR 22/19 A3009 RMK AO2 SLP189 T02220189
                 55000 =
2016-08-30 03:54 METAR KGED 300754Z AUTO 01003KT 10SM CLR 23/19 A3009 RMK AO2 SLP188 T02330194 =
2016-08-30 02:54 METAR KGED 300654Z AUTO 02005KT 10SM CLR 24/19 A3009 RMK AO2 SLP188 T02390194 =
2016-08-30 01:54 METAR KGED 300554Z AUTO 03004KT 10SM CLR 24/19 A3009 RMK AO2 SLP189 T02390194
                 10261 20222 58005 =
2016-08-30 00:54 METAR KGED 300454Z AUTO 01003KT 10SM CLR 23/19 A3010 RMK AO2 SLP192 T02330194
                 403220172 =
2016-08-29 23:54 METAR KGED 300354Z AUTO 32004KT 10SM CLR 23/20 A3010 RMK AO2 SLP193 T02330200 =
2016-08-29 22:54 METAR KGED 300254Z AUTO 23003KT 10SM CLR 24/19 A3011 RMK AO2 SLP194 T02390194
                 50004 =

Support USWX by starting your Amazon purchase here.